Accueil
METAR-TAF:

METAR-TAF

Aéroports :

Luxembourg, Luxembourg

Aéroport de Luxembourg-Findel

latitude: 49-37N, longitude: 006-13E, altitude: 376 m

Observation

Le bulletin a été fait il y a 18 minutes, à 16:20 UTC
Vent 18 kt de est/nord-est
Température 1°C
Humidité 51%
Pression 1016 hPa
Visibilité 10 km ou plus
pas de nuages en-dessous de 1500 mètres et pas de cumulonimbus.

METAR: ELLX 221620Z 06018KT CAVOK 01/M08 Q1016 NOSIG

Heure: 17:38 (16:38 UTC)

Prévision

Le bulletin a été fait il y a 5 heures et 38 minutes, à 11:00 UTC
Prévision valable du 22 à 12 UTC au 23 à 18 UTC
Vent 15 kt de est/nord-est
Visibilité 10 km ou plus
pas de nuages en-dessous de 1500 mètres et pas de cumulonimbus.
Temporairement
du 22 à 12 UTC au 22 à 17 UTC
Vent 20 kt de est/nord-est avec des rafales jusqu'à 30 kt

TAF: ELLX 221100Z 2212/2318 06015KT CAVOK TEMPO 2212/2217 07020G30KT

Observations et prévisions météorologiques de plus de 4000 aéroports (messages METAR et TAF).

Les stations disponibles sont représentées par des disques jaunes et rouges sur la carte.

Passer la souris dessus pour voir le nom de la station.

Cliquer dessus pour voir les observations et prévisions météorologiques.

Pour changer de carte: cliquez sur les boutons verts avec une croix noire pour zoomer, sur le bouton vert avec un tiret pour effectuer un zoom arrière, ou sur les flèches vertes pour les cartes adjacentes.


METAR-TAF: